createdAt,value
2023-03-11T00:01:26.634Z,13.37
2023-03-11T00:03:54.444Z,14.40
2023-03-11T00:06:23.588Z,14.77
2023-03-11T00:08:52.252Z,13.07
2023-03-11T00:11:22.420Z,14.03
2023-03-11T00:13:50.283Z,13.43
2023-03-11T00:16:18.128Z,14.03
2023-03-11T00:18:46.199Z,14.17
2023-03-11T00:21:16.992Z,14.53
2023-03-11T00:23:46.447Z,14.23
2023-03-11T00:26:14.324Z,14.77
2023-03-11T00:28:42.067Z,15.37
2023-03-11T00:31:12.405Z,13.97
2023-03-11T00:33:40.425Z,14.47
2023-03-11T00:36:08.971Z,14.27
2023-03-11T00:38:36.857Z,13.70
2023-03-11T00:41:06.149Z,14.20
2023-03-11T00:43:34.167Z,13.67
2023-03-11T00:46:02.129Z,14.33
2023-03-11T00:48:29.982Z,13.63
2023-03-11T00:50:58.000Z,12.47
2023-03-11T00:53:25.793Z,9.47
2023-03-11T00:55:53.634Z,12.90
2023-03-11T00:58:27.193Z,13.27
2023-03-11T01:00:56.988Z,13.33
2023-03-11T01:03:24.872Z,13.50
2023-03-11T01:05:53.236Z,13.97
2023-03-11T01:08:21.010Z,12.40
2023-03-11T01:10:48.844Z,15.27
2023-03-11T01:13:16.766Z,14.50
2023-03-11T01:15:45.992Z,16.37
2023-03-11T01:18:14.036Z,15.83
2023-03-11T01:20:41.898Z,16.90
2023-03-11T01:23:10.552Z,16.90
2023-03-11T01:25:38.470Z,16.60
2023-03-11T01:28:08.152Z,17.00
2023-03-11T01:30:37.545Z,16.60
2023-03-11T01:33:07.773Z,18.23
2023-03-11T01:35:36.123Z,14.70
2023-03-11T01:38:03.961Z,17.90
2023-03-11T01:40:33.381Z,13.93
2023-03-11T01:43:07.749Z,16.67
2023-03-11T01:45:42.631Z,14.40
2023-03-11T01:48:13.878Z,14.57
2023-03-11T01:50:43.986Z,14.37
2023-03-11T01:53:12.567Z,11.97
2023-03-11T01:55:41.823Z,12.13
2023-03-11T01:58:13.414Z,11.13
2023-03-11T02:00:43.503Z,8.97
2023-03-11T02:03:17.142Z,7.87
2023-03-11T02:05:45.108Z,8.50
2023-03-11T02:08:12.936Z,5.97
2023-03-11T02:10:42.211Z,5.53
2023-03-11T02:13:10.562Z,4.77
2023-03-11T02:15:40.074Z,4.37
2023-03-11T02:18:08.662Z,3.97
2023-03-11T02:20:43.938Z,3.17
2023-03-11T02:23:14.332Z,3.27
2023-03-11T02:25:46.814Z,3.17
2023-03-11T02:28:17.502Z,2.43
2023-03-11T02:30:45.574Z,2.50
2023-03-11T02:33:14.606Z,2.30
2023-03-11T02:35:43.712Z,2.50
2023-03-11T02:38:11.715Z,2.40
2023-03-11T02:40:51.659Z,2.60
2023-03-11T02:43:26.136Z,2.27
2023-03-11T02:45:54.876Z,2.60
2023-03-11T02:48:23.184Z,2.27
2023-03-11T02:50:51.169Z,2.60
2023-03-11T02:53:20.553Z,2.50
2023-03-11T02:55:48.479Z,2.80
2023-03-11T02:58:16.235Z,3.07
2023-03-11T03:00:45.420Z,2.50
2023-03-11T03:03:13.205Z,2.37
2023-03-11T03:05:41.542Z,2.47
2023-03-11T03:08:09.502Z,2.57
2023-03-11T03:10:37.326Z,2.77
2023-03-11T03:13:05.402Z,2.57
2023-03-11T03:15:33.365Z,2.27
2023-03-11T03:18:03.209Z,3.00
2023-03-11T03:20:30.963Z,3.13
2023-03-11T03:23:01.850Z,2.33
2023-03-11T03:25:32.260Z,3.03
2023-03-11T03:28:04.468Z,3.30
2023-03-11T03:30:35.137Z,3.50
2023-03-11T03:33:04.564Z,3.20
2023-03-11T03:35:33.316Z,3.63
2023-03-11T03:38:06.053Z,3.13
2023-03-11T03:40:34.492Z,3.80
2023-03-11T03:43:05.174Z,3.50
2023-03-11T03:45:34.395Z,3.73
2023-03-11T03:48:03.938Z,3.93
2023-03-11T03:50:35.014Z,3.70
2023-03-11T03:53:03.116Z,3.27
2023-03-11T03:55:30.992Z,3.43
2023-03-11T03:57:59.991Z,3.87
2023-03-11T04:00:32.738Z,3.43
2023-03-11T04:03:04.785Z,4.27
2023-03-11T04:05:40.801Z,4.47
2023-03-11T04:08:08.834Z,3.83
2023-03-11T04:10:36.674Z,4.37
2023-03-11T04:13:05.234Z,4.87
2023-03-11T04:15:33.676Z,4.37
2023-03-11T04:18:01.810Z,4.67
2023-03-11T04:20:31.252Z,3.90
2023-03-11T04:22:59.191Z,4.43
2023-03-11T04:25:27.055Z,4.40
2023-03-11T04:27:55.209Z,4.63
2023-03-11T04:30:24.134Z,4.83
2023-03-11T04:32:56.403Z,3.73
2023-03-11T04:35:24.922Z,3.97
2023-03-11T04:37:54.227Z,4.40
2023-03-11T04:40:22.917Z,3.60
2023-03-11T04:42:50.771Z,4.20
2023-03-11T04:45:18.977Z,4.50
2023-03-11T04:47:49.606Z,4.30
2023-03-11T04:50:17.935Z,4.83
2023-03-11T04:52:46.199Z,4.53
2023-03-11T04:55:16.220Z,4.13
2023-03-11T04:57:44.804Z,4.10
2023-03-11T05:00:16.598Z,2.63
2023-03-11T05:02:48.810Z,3.67
2023-03-11T05:05:16.776Z,3.30
2023-03-11T05:07:44.872Z,3.97
2023-03-11T05:10:22.107Z,3.43
2023-03-11T05:12:52.241Z,4.00
2023-03-11T05:15:21.491Z,2.90
2023-03-11T05:17:49.311Z,4.23
2023-03-11T05:20:17.702Z,4.20
2023-03-11T05:22:46.018Z,3.80
2023-03-11T05:25:15.589Z,4.13
2023-03-11T05:27:44.203Z,4.00
2023-03-11T05:30:13.494Z,4.67
2023-03-11T05:32:42.744Z,4.07
2023-03-11T05:35:10.792Z,3.87
2023-03-11T05:37:39.282Z,4.50
2023-03-11T05:40:09.118Z,3.73
2023-03-11T05:42:41.697Z,3.93
2023-03-11T05:45:11.718Z,3.97
2023-03-11T05:47:42.344Z,4.03
2023-03-11T05:50:12.921Z,3.90
2023-03-11T05:52:42.178Z,3.70
2023-03-11T05:55:12.225Z,4.27
2023-03-11T05:57:43.305Z,4.00
2023-03-11T06:00:12.849Z,4.00
2023-03-11T06:02:48.831Z,4.13
2023-03-11T06:05:19.414Z,4.23
2023-03-11T06:07:49.324Z,4.67
2023-03-11T06:10:17.358Z,4.27
2023-03-11T06:12:46.497Z,4.07
2023-03-11T06:15:23.068Z,4.50
2023-03-11T06:17:51.302Z,4.90
2023-03-11T06:20:19.431Z,3.57
2023-03-11T06:22:49.268Z,4.47
2023-03-11T06:25:19.370Z,4.50
2023-03-11T06:27:53.200Z,5.07
2023-03-11T06:30:22.336Z,4.60
2023-03-11T06:32:59.960Z,5.30
2023-03-11T06:35:28.010Z,5.00
2023-03-11T06:37:56.724Z,5.17
2023-03-11T06:40:24.492Z,5.03
2023-03-11T06:42:53.627Z,5.57
2023-03-11T06:45:24.594Z,4.00
2023-03-11T06:47:53.580Z,5.17
2023-03-11T06:50:23.924Z,5.60
2023-03-11T06:52:52.691Z,4.83
2023-03-11T06:55:21.114Z,5.73
2023-03-11T06:57:48.962Z,4.37
2023-03-11T07:00:19.135Z,5.13
2023-03-11T07:02:52.873Z,5.53
2023-03-11T07:05:21.590Z,4.97
2023-03-11T07:07:54.740Z,5.10
2023-03-11T07:10:24.041Z,5.00
2023-03-11T07:12:52.253Z,5.87
2023-03-11T07:15:21.707Z,4.90
2023-03-11T07:17:49.527Z,5.00
2023-03-11T07:20:18.953Z,5.10
2023-03-11T07:22:46.952Z,5.13
2023-03-11T07:25:14.873Z,5.07
2023-03-11T07:27:42.683Z,5.37
2023-03-11T07:30:14.547Z,5.13
2023-03-11T07:32:44.051Z,5.03
2023-03-11T07:35:11.894Z,5.23
2023-03-11T07:37:39.683Z,5.07
2023-03-11T07:40:09.077Z,5.37
2023-03-11T07:42:36.892Z,5.33
2023-03-11T07:45:05.213Z,6.00
2023-03-11T07:47:33.061Z,6.10
2023-03-11T07:50:02.172Z,4.37
2023-03-11T07:52:31.438Z,5.73
2023-03-11T07:54:59.468Z,5.83
2023-03-11T07:57:27.310Z,5.40
2023-03-11T07:59:55.128Z,5.60
2023-03-11T08:02:22.876Z,4.90
2023-03-11T08:04:50.710Z,4.53
2023-03-11T08:07:20.667Z,3.87
2023-03-11T08:09:48.432Z,5.10
2023-03-11T08:12:17.056Z,4.40
2023-03-11T08:14:45.057Z,4.70
2023-03-11T08:17:13.112Z,4.27
2023-03-11T08:19:40.936Z,4.30
2023-03-11T08:22:08.820Z,4.37
2023-03-11T08:24:37.927Z,4.60
2023-03-11T08:27:05.994Z,4.30
2023-03-11T08:29:33.834Z,4.47
2023-03-11T08:32:01.699Z,4.37
2023-03-11T08:34:29.493Z,4.10
2023-03-11T08:36:57.381Z,3.83
2023-03-11T08:39:25.167Z,3.73
2023-03-11T08:41:54.336Z,3.20
2023-03-11T08:44:22.166Z,3.57
2023-03-11T08:46:50.125Z,3.40
2023-03-11T08:49:18.000Z,3.03
2023-03-11T08:51:45.802Z,3.40
2023-03-11T08:54:13.646Z,3.80
2023-03-11T08:56:41.678Z,3.83
2023-03-11T08:59:10.973Z,3.53
2023-03-11T09:01:38.738Z,3.57
2023-03-11T09:04:06.760Z,3.47
2023-03-11T09:06:34.615Z,4.13
2023-03-11T09:09:02.468Z,3.77
2023-03-11T09:11:30.704Z,4.00
2023-03-11T09:13:58.517Z,4.10
2023-03-11T09:16:27.868Z,4.40
2023-03-11T09:18:55.814Z,3.80
2023-03-11T09:21:23.807Z,3.60
2023-03-11T09:23:51.629Z,3.33
2023-03-11T09:26:19.607Z,3.73
2023-03-11T09:28:49.192Z,3.07
2023-03-11T09:31:17.561Z,4.43
2023-03-11T09:33:47.185Z,3.87
2023-03-11T09:36:19.554Z,3.67
2023-03-11T09:38:52.085Z,3.60
2023-03-11T09:41:29.835Z,3.30
2023-03-11T09:44:06.394Z,3.57
2023-03-11T09:46:52.024Z,4.00
2023-03-11T09:49:27.089Z,4.10
2023-03-11T09:51:59.426Z,4.00
2023-03-11T09:54:30.547Z,3.73
2023-03-11T09:56:58.450Z,3.73
2023-03-11T09:59:30.447Z,3.60
2023-03-11T10:01:58.606Z,4.10
2023-03-11T10:04:29.930Z,3.90
2023-03-11T10:06:58.575Z,3.43
2023-03-11T10:09:34.810Z,3.23
2023-03-11T10:12:18.888Z,4.10
2023-03-11T10:14:58.653Z,4.30
2023-03-11T10:17:45.016Z,3.90
2023-03-11T10:20:19.345Z,3.90
2023-03-11T10:22:53.657Z,3.53
2023-03-11T10:25:24.883Z,4.20
2023-03-11T10:27:55.532Z,3.50
2023-03-11T10:30:27.368Z,4.00
2023-03-11T10:32:58.582Z,4.00
2023-03-11T10:35:32.471Z,3.60
2023-03-11T10:38:04.705Z,4.03
2023-03-11T10:40:33.962Z,4.10
2023-03-11T10:43:04.520Z,4.60
2023-03-11T10:45:38.326Z,4.40
2023-03-11T10:48:10.267Z,4.40
2023-03-11T10:50:47.474Z,4.07
2023-03-11T10:53:17.440Z,3.50
2023-03-11T10:55:47.987Z,3.67
2023-03-11T10:58:18.154Z,4.00
2023-03-11T11:00:46.393Z,4.37
2023-03-11T11:03:21.686Z,3.80
2023-03-11T11:06:00.966Z,4.93
2023-03-11T11:08:29.415Z,4.43
2023-03-11T11:10:58.793Z,4.23
2023-03-11T11:13:27.552Z,4.30
2023-03-11T11:15:58.386Z,4.53
2023-03-11T11:18:28.751Z,4.60
2023-03-11T11:21:02.081Z,4.57
2023-03-11T11:23:34.798Z,4.00
2023-03-11T11:26:04.665Z,4.63
2023-03-11T11:28:33.689Z,5.30
2023-03-11T11:31:03.706Z,5.50
2023-03-11T11:33:33.003Z,4.93
2023-03-11T11:36:04.171Z,4.90
2023-03-11T11:38:33.124Z,5.07
2023-03-11T11:41:03.870Z,5.03
2023-03-11T11:43:45.329Z,5.20
2023-03-11T11:46:20.953Z,5.20
2023-03-11T11:48:56.555Z,5.67
2023-03-11T11:51:29.959Z,5.63
2023-03-11T11:54:02.178Z,6.00
2023-03-11T11:56:30.356Z,5.87
2023-03-11T11:58:58.212Z,5.50
2023-03-11T12:01:35.857Z,6.23
2023-03-11T12:04:22.316Z,6.20
2023-03-11T12:06:57.971Z,6.13
2023-03-11T12:09:31.507Z,5.53
2023-03-11T12:12:08.937Z,5.87
2023-03-11T12:14:38.284Z,5.43
2023-03-11T12:17:06.323Z,5.77
2023-03-11T12:19:37.786Z,5.13
2023-03-11T12:22:30.296Z,5.47
2023-03-11T12:25:09.742Z,5.77
2023-03-11T12:27:43.053Z,6.00
2023-03-11T12:30:15.532Z,6.10
2023-03-11T12:32:45.747Z,5.90
2023-03-11T12:35:22.386Z,6.57
2023-03-11T12:37:58.761Z,6.10
2023-03-11T12:40:50.075Z,6.50
2023-03-11T12:44:11.375Z,6.30
2023-03-11T12:47:02.536Z,6.50
2023-03-11T12:49:31.566Z,5.87
2023-03-11T12:52:03.831Z,6.20
2023-03-11T12:54:34.469Z,6.03
2023-03-11T12:57:03.077Z,4.97
2023-03-11T13:00:07.795Z,12.07
2023-03-11T13:03:01.750Z,5.87
2023-03-11T13:05:32.694Z,6.20
2023-03-11T13:08:02.049Z,6.50
2023-03-11T13:10:39.980Z,5.80
2023-03-11T13:13:39.364Z,6.13
2023-03-11T13:16:37.481Z,6.17
2023-03-11T13:19:36.051Z,6.00
2023-03-11T13:22:05.733Z,5.10
2023-03-11T13:24:51.075Z,5.60
2023-03-11T13:27:32.847Z,6.17
2023-03-11T13:30:05.345Z,5.33
2023-03-11T13:35:47.250Z,5.80
2023-03-11T13:38:30.108Z,5.07
2023-03-11T13:40:58.186Z,5.63
2023-03-11T13:43:27.578Z,5.53
2023-03-11T13:45:58.812Z,5.90
2023-03-11T13:48:29.829Z,5.03
2023-03-11T13:51:01.312Z,5.73
2023-03-11T13:53:31.266Z,5.50
2023-03-11T13:55:59.073Z,5.00
2023-03-11T13:58:29.346Z,5.00
2023-03-11T14:00:58.530Z,5.40
2023-03-11T14:03:27.922Z,5.00
2023-03-11T14:06:01.780Z,5.10
2023-03-11T14:08:31.739Z,5.00
2023-03-11T14:11:00.676Z,4.80
2023-03-11T14:13:30.614Z,4.20
2023-03-11T14:16:04.909Z,4.37
2023-03-11T14:18:38.553Z,5.70
2023-03-11T14:21:08.800Z,4.80
2023-03-11T14:23:43.441Z,5.00
2023-03-11T14:26:15.082Z,4.30
2023-03-11T14:28:45.722Z,4.80
2023-03-11T14:31:25.497Z,4.37
2023-03-11T14:34:04.235Z,4.67
2023-03-11T14:36:40.508Z,4.30
2023-03-11T14:39:23.697Z,3.80
2023-03-11T14:41:52.490Z,4.60
2023-03-11T14:44:22.521Z,4.13
2023-03-11T14:46:50.964Z,4.37
2023-03-11T14:49:21.912Z,4.33
2023-03-11T14:51:54.974Z,3.90
2023-03-11T14:54:25.614Z,4.53
2023-03-11T14:57:05.448Z,3.70
2023-03-11T14:59:35.748Z,4.10
2023-03-11T15:02:23.527Z,4.30
2023-03-11T15:04:51.678Z,4.07
2023-03-11T15:07:20.184Z,4.17
2023-03-11T15:09:48.198Z,3.80
2023-03-11T15:12:32.468Z,4.00
2023-03-11T15:15:01.759Z,3.77
2023-03-11T15:17:42.580Z,3.50
2023-03-11T15:20:25.296Z,3.70
2023-03-11T15:22:58.139Z,3.07
2023-03-11T15:25:25.974Z,3.43
2023-03-11T15:27:56.352Z,3.37
2023-03-11T15:30:27.741Z,3.50
2023-03-11T15:32:56.386Z,2.70
2023-03-11T15:35:26.612Z,2.83
2023-03-11T15:38:13.404Z,3.07
2023-03-11T15:40:45.680Z,3.03
2023-03-11T15:43:32.327Z,2.93
2023-03-11T15:46:03.486Z,3.27
2023-03-11T15:48:31.515Z,3.00
2023-03-11T15:51:00.756Z,3.27
2023-03-11T15:53:30.106Z,2.90
2023-03-11T15:56:06.602Z,3.27
2023-03-11T15:58:35.546Z,3.77
2023-03-11T16:01:04.964Z,3.10
2023-03-11T16:03:33.256Z,3.07
2023-03-11T16:06:01.361Z,3.37
2023-03-11T16:08:29.221Z,3.60
2023-03-11T16:10:58.003Z,3.43
2023-03-11T16:13:25.831Z,3.03
2023-03-11T16:15:54.064Z,3.10
2023-03-11T16:18:23.343Z,2.90
2023-03-11T16:20:53.247Z,2.90
2023-03-11T16:23:23.514Z,2.57
2023-03-11T16:25:51.685Z,2.87
2023-03-11T16:28:19.464Z,3.60
2023-03-11T16:30:48.339Z,2.53
2023-03-11T16:33:16.324Z,2.70
2023-03-11T16:35:45.785Z,3.17
2023-03-11T16:38:13.680Z,2.73
2023-03-11T16:40:46.029Z,2.53
2023-03-11T16:43:24.518Z,2.80
2023-03-11T16:45:53.802Z,3.07
2023-03-11T16:48:21.755Z,3.80
2023-03-11T16:50:51.247Z,5.27
2023-03-11T16:53:19.239Z,2.90
2023-03-11T16:55:48.135Z,3.23
2023-03-11T16:58:16.366Z,3.70
2023-03-11T17:00:44.914Z,2.60
2023-03-11T17:03:13.111Z,3.87
2023-03-11T17:05:41.400Z,3.50
2023-03-11T17:08:10.915Z,3.30
2023-03-11T17:10:40.063Z,2.97
2023-03-11T17:13:08.434Z,3.00
2023-03-11T17:15:37.945Z,2.70
2023-03-11T17:18:05.923Z,3.30
2023-03-11T17:20:34.254Z,4.60
2023-03-11T17:23:02.158Z,3.30
2023-03-11T17:25:31.351Z,4.17
2023-03-11T17:27:59.139Z,3.83
2023-03-11T17:30:36.413Z,5.00
2023-03-11T17:33:05.169Z,2.93
2023-03-11T17:35:33.165Z,2.97
2023-03-11T17:38:00.990Z,3.20
2023-03-11T17:40:31.554Z,3.57
2023-03-11T17:43:01.005Z,4.27
2023-03-11T17:45:28.828Z,4.73
2023-03-11T17:47:56.683Z,3.90
2023-03-11T17:50:26.204Z,4.20
2023-03-11T17:52:54.308Z,3.60
2023-03-11T17:55:22.117Z,3.30
2023-03-11T17:57:49.935Z,3.70
2023-03-11T18:00:19.950Z,3.30
2023-03-11T18:02:47.759Z,3.53
2023-03-11T18:05:17.582Z,3.60
2023-03-11T18:07:46.525Z,4.30
2023-03-11T18:10:15.833Z,3.30
2023-03-11T18:12:45.315Z,4.13
2023-03-11T18:15:18.688Z,3.73
2023-03-11T18:17:48.142Z,3.60
2023-03-11T18:20:16.314Z,3.40
2023-03-11T18:22:46.617Z,4.30
2023-03-11T18:25:14.959Z,4.63
2023-03-11T18:27:43.382Z,3.67
2023-03-11T18:30:12.329Z,3.70
2023-03-11T18:32:40.272Z,3.80
2023-03-11T18:35:10.650Z,4.73
2023-03-11T18:37:38.477Z,4.97
2023-03-11T18:40:07.750Z,5.63
2023-03-11T18:42:35.516Z,3.77
2023-03-11T18:45:03.410Z,7.57
2023-03-11T18:47:34.524Z,4.00
2023-03-11T18:50:02.425Z,5.43
2023-03-11T18:52:31.626Z,3.30
2023-03-11T18:54:59.439Z,5.57
2023-03-11T18:57:27.709Z,4.53
2023-03-11T18:59:55.531Z,2.43
2023-03-11T19:02:23.434Z,3.33
2023-03-11T19:04:51.273Z,3.43
2023-03-11T19:07:19.518Z,3.40
2023-03-11T19:09:50.645Z,3.80
2023-03-11T19:12:18.433Z,3.47
2023-03-11T19:14:46.231Z,3.20
2023-03-11T19:17:16.334Z,8.20
2023-03-11T19:19:44.123Z,10.93
2023-03-11T19:22:11.937Z,10.53
2023-03-11T19:24:42.085Z,34.63
2023-03-11T19:27:11.249Z,3.57
2023-03-11T19:29:39.061Z,5.53
2023-03-11T19:32:07.251Z,3.00
2023-03-11T19:34:35.385Z,2.83
2023-03-11T19:37:03.200Z,2.67
2023-03-11T19:39:31.254Z,5.73
2023-03-11T19:41:59.778Z,2.97
2023-03-11T19:44:31.204Z,6.00
2023-03-11T19:46:59.912Z,3.03
2023-03-11T19:49:27.721Z,2.87
2023-03-11T19:51:56.022Z,5.20
2023-03-11T19:54:23.835Z,2.53
2023-03-11T19:56:51.630Z,2.80
2023-03-11T19:59:19.623Z,6.53
2023-03-11T20:01:48.869Z,3.93
2023-03-11T20:04:16.810Z,5.77
2023-03-11T20:06:45.422Z,2.57
2023-03-11T20:09:15.527Z,2.83
2023-03-11T20:11:44.173Z,2.77
2023-03-11T20:14:12.609Z,2.50
2023-03-11T20:16:40.557Z,2.70
2023-03-11T20:19:09.873Z,3.27
2023-03-11T20:21:40.555Z,3.90
2023-03-11T20:24:09.336Z,2.57
2023-03-11T20:26:38.148Z,2.37
2023-03-11T20:29:06.806Z,2.70
2023-03-11T20:31:34.843Z,2.20
2023-03-11T20:34:02.910Z,2.50
2023-03-11T20:36:33.871Z,2.47
2023-03-11T20:39:01.956Z,3.07
2023-03-11T20:41:29.786Z,2.57
2023-03-11T20:43:58.033Z,2.30
2023-03-11T20:46:25.989Z,2.60
2023-03-11T20:48:53.932Z,2.50
2023-03-11T20:51:24.277Z,2.57
2023-03-11T20:53:53.687Z,2.07
2023-03-11T20:56:22.771Z,2.47
2023-03-11T20:58:51.715Z,2.07
2023-03-11T21:01:21.416Z,2.60
2023-03-11T21:03:49.641Z,2.10
2023-03-11T21:06:19.096Z,2.40
2023-03-11T21:08:47.985Z,2.97
2023-03-11T21:11:17.837Z,2.97
2023-03-11T21:13:45.702Z,2.20
2023-03-11T21:16:13.731Z,2.80
2023-03-11T21:18:43.108Z,2.50
2023-03-11T21:21:13.816Z,2.80
2023-03-11T21:23:43.692Z,2.40
2023-03-11T21:26:12.614Z,4.93
2023-03-11T21:28:46.243Z,2.40
2023-03-11T21:31:16.028Z,2.73
2023-03-11T21:33:44.202Z,3.17
2023-03-11T21:36:13.748Z,2.83
2023-03-11T21:38:41.577Z,8.20
2023-03-11T21:41:11.961Z,3.00
2023-03-11T21:43:41.598Z,3.87
2023-03-11T21:46:11.453Z,2.93
2023-03-11T21:48:39.481Z,14.47
2023-03-11T21:51:08.171Z,2.50
2023-03-11T21:53:36.264Z,2.60
2023-03-11T21:56:04.713Z,2.77
2023-03-11T21:58:32.984Z,5.33
2023-03-11T22:01:02.530Z,5.17
2023-03-11T22:03:35.725Z,2.47
2023-03-11T22:06:05.569Z,2.60
2023-03-11T22:08:33.958Z,4.17
2023-03-11T22:11:02.293Z,2.70
2023-03-11T22:13:30.669Z,1.90
2023-03-11T22:15:59.075Z,2.77
2023-03-11T22:18:28.253Z,3.27
2023-03-11T22:20:58.755Z,2.20
2023-03-11T22:23:26.661Z,3.50
2023-03-11T22:25:54.638Z,4.80
2023-03-11T22:28:22.481Z,2.40
2023-03-11T22:30:50.329Z,2.00
2023-03-11T22:33:18.145Z,2.43
2023-03-11T22:35:52.124Z,3.27
2023-03-11T22:38:19.987Z,2.30
2023-03-11T22:40:48.075Z,2.03
2023-03-11T22:43:16.001Z,2.23
2023-03-11T22:45:44.916Z,2.40
2023-03-11T22:48:12.936Z,2.67
2023-03-11T22:50:41.130Z,2.60
2023-03-11T22:53:10.379Z,1.93
2023-03-11T22:55:40.017Z,2.27
2023-03-11T22:58:07.902Z,2.03
2023-03-11T23:00:36.652Z,2.00
2023-03-11T23:03:04.687Z,2.43
2023-03-11T23:05:34.800Z,1.80
2023-03-11T23:08:02.619Z,2.20
2023-03-11T23:10:31.807Z,1.87
2023-03-11T23:12:59.547Z,1.80
2023-03-11T23:15:27.340Z,1.87
2023-03-11T23:17:55.130Z,2.10
2023-03-11T23:20:22.987Z,2.37
2023-03-11T23:22:50.855Z,1.60
2023-03-11T23:25:19.433Z,1.70
2023-03-11T23:27:48.637Z,2.20
2023-03-11T23:30:17.753Z,1.90
2023-03-11T23:32:46.059Z,2.40
2023-03-11T23:35:14.382Z,2.90
2023-03-11T23:37:42.259Z,2.00
2023-03-11T23:40:11.393Z,1.93
2023-03-11T23:42:39.129Z,1.90
2023-03-11T23:45:09.794Z,2.10
2023-03-11T23:47:38.075Z,2.20
2023-03-11T23:50:06.761Z,2.23
2023-03-11T23:52:35.098Z,2.23
2023-03-11T23:55:03.047Z,1.53
2023-03-11T23:57:30.909Z,1.90
2023-03-11T23:59:58.904Z,1.87
